sensor_id;sensor_type;location;lat;lon;timestamp;pressure;altitude;pressure_sealevel;temperature;humidity
70011;BME280;59543;37.950;-122.338;2023-08-01T00:00:43;101238.88;;;20.04;64.87
70011;BME280;59543;37.950;-122.338;2023-08-01T00:03:10;101234.84;;;20.00;64.94
70011;BME280;59543;37.950;-122.338;2023-08-01T00:05:36;101228.22;;;19.60;65.35
70011;BME280;59543;37.950;-122.338;2023-08-01T00:08:04;101224.09;;;19.49;66.58
70011;BME280;59543;37.950;-122.338;2023-08-01T00:10:30;101225.38;;;19.68;66.12
70011;BME280;59543;37.950;-122.338;2023-08-01T00:12:56;101215.41;;;19.39;66.48
70011;BME280;59543;37.950;-122.338;2023-08-01T00:15:23;101213.25;;;18.91;69.51
70011;BME280;59543;37.950;-122.338;2023-08-01T00:17:49;101218.63;;;18.70;70.42
70011;BME280;59543;37.950;-122.338;2023-08-01T00:20:15;101207.47;;;18.50;70.82
70011;BME280;59543;37.950;-122.338;2023-08-01T00:22:41;101211.91;;;18.51;71.60
70011;BME280;59543;37.950;-122.338;2023-08-01T00:25:08;101214.41;;;18.52;72.22
70011;BME280;59543;37.950;-122.338;2023-08-01T00:27:34;101204.75;;;18.50;72.87
70011;BME280;59543;37.950;-122.338;2023-08-01T00:30:01;101200.72;;;18.31;73.38
70011;BME280;59543;37.950;-122.338;2023-08-01T00:32:27;101200.38;;;18.70;72.39
70011;BME280;59543;37.950;-122.338;2023-08-01T00:34:53;101202.59;;;18.60;72.19
70011;BME280;59543;37.950;-122.338;2023-08-01T00:37:19;101199.22;;;18.28;72.87
70011;BME280;59543;37.950;-122.338;2023-08-01T00:39:46;101197.63;;;18.34;72.90
70011;BME280;59543;37.950;-122.338;2023-08-01T00:42:13;101195.09;;;17.88;74.59
70011;BME280;59543;37.950;-122.338;2023-08-01T00:44:39;101200.63;;;17.57;76.04
70011;BME280;59543;37.950;-122.338;2023-08-01T00:47:05;101185.31;;;17.56;76.57
70011;BME280;59543;37.950;-122.338;2023-08-01T00:49:31;101183.31;;;17.73;75.63
70011;BME280;59543;37.950;-122.338;2023-08-01T00:51:58;101192.06;;;17.45;77.11
70011;BME280;59543;37.950;-122.338;2023-08-01T00:54:25;101184.59;;;17.24;77.49
70011;BME280;59543;37.950;-122.338;2023-08-01T00:56:51;101178.47;;;17.45;77.39
70011;BME280;59543;37.950;-122.338;2023-08-01T00:59:18;101191.13;;;17.53;77.21
70011;BME280;59543;37.950;-122.338;2023-08-01T01:01:44;101193.00;;;17.52;76.83
70011;BME280;59543;37.950;-122.338;2023-08-01T01:04:11;101194.84;;;17.37;77.03
70011;BME280;59543;37.950;-122.338;2023-08-01T01:09:21;101207.16;;;17.02;78.62
70011;BME280;59543;37.950;-122.338;2023-08-01T01:11:47;101217.50;;;17.06;78.79
70011;BME280;59543;37.950;-122.338;2023-08-01T01:14:14;101206.56;;;17.14;78.61
70011;BME280;59543;37.950;-122.338;2023-08-01T01:16:40;101205.06;;;17.35;77.60
70011;BME280;59543;37.950;-122.338;2023-08-01T01:19:09;101202.56;;;17.02;78.70
70011;BME280;59543;37.950;-122.338;2023-08-01T01:21:37;101199.88;;;17.25;77.67
70011;BME280;59543;37.950;-122.338;2023-08-01T01:24:06;101199.56;;;17.20;77.37
70011;BME280;59543;37.950;-122.338;2023-08-01T01:26:33;101192.38;;;17.04;77.85
70011;BME280;59543;37.950;-122.338;2023-08-01T01:29:04;101197.78;;;16.81;79.05
70011;BME280;59543;37.950;-122.338;2023-08-01T01:31:32;101197.13;;;17.02;79.11
70011;BME280;59543;37.950;-122.338;2023-08-01T01:34:00;101192.41;;;16.96;78.54
70011;BME280;59543;37.950;-122.338;2023-08-01T01:36:26;101199.22;;;17.00;78.51
70011;BME280;59543;37.950;-122.338;2023-08-01T01:38:53;101197.41;;;17.16;77.75
70011;BME280;59543;37.950;-122.338;2023-08-01T01:41:19;101196.16;;;16.95;77.83
70011;BME280;59543;37.950;-122.338;2023-08-01T01:43:45;101204.72;;;16.84;78.27
70011;BME280;59543;37.950;-122.338;2023-08-01T01:46:11;101187.25;;;17.09;77.66
70011;BME280;59543;37.950;-122.338;2023-08-01T01:48:37;101196.91;;;16.89;78.17
70011;BME280;59543;37.950;-122.338;2023-08-01T01:51:04;101191.69;;;16.79;79.00
70011;BME280;59543;37.950;-122.338;2023-08-01T01:53:30;101192.53;;;16.72;79.79
70011;BME280;59543;37.950;-122.338;2023-08-01T01:55:56;101181.00;;;16.69;79.76
70011;BME280;59543;37.950;-122.338;2023-08-01T01:58:22;101192.44;;;16.57;80.23
70011;BME280;59543;37.950;-122.338;2023-08-01T02:00:49;101208.75;;;16.49;80.81
70011;BME280;59543;37.950;-122.338;2023-08-01T02:03:15;101207.19;;;16.62;80.68
70011;BME280;59543;37.950;-122.338;2023-08-01T02:05:42;101196.94;;;16.81;79.62
70011;BME280;59543;37.950;-122.338;2023-08-01T02:08:08;101213.88;;;16.91;78.87
70011;BME280;59543;37.950;-122.338;2023-08-01T02:10:34;101219.69;;;16.80;78.57
70011;BME280;59543;37.950;-122.338;2023-08-01T02:13:00;101214.16;;;16.57;79.94
70011;BME280;59543;37.950;-122.338;2023-08-01T02:15:27;101228.53;;;16.74;79.57
70011;BME280;59543;37.950;-122.338;2023-08-01T02:17:53;101216.53;;;16.60;79.49
70011;BME280;59543;37.950;-122.338;2023-08-01T02:20:19;101212.50;;;16.56;79.83
70011;BME280;59543;37.950;-122.338;2023-08-01T02:22:45;101229.38;;;16.82;79.04
70011;BME280;59543;37.950;-122.338;2023-08-01T02:25:11;101225.97;;;16.80;78.44
70011;BME280;59543;37.950;-122.338;2023-08-01T02:27:38;101223.59;;;16.85;78.38
70011;BME280;59543;37.950;-122.338;2023-08-01T02:30:04;101223.47;;;17.02;77.41
70011;BME280;59543;37.950;-122.338;2023-08-01T02:32:31;101230.56;;;16.80;78.60
70011;BME280;59543;37.950;-122.338;2023-08-01T02:34:57;101238.41;;;16.66;78.93
70011;BME280;59543;37.950;-122.338;2023-08-01T02:37:23;101231.47;;;16.64;79.52
70011;BME280;59543;37.950;-122.338;2023-08-01T02:39:50;101225.03;;;16.96;77.64
70011;BME280;59543;37.950;-122.338;2023-08-01T02:42:16;101239.66;;;16.48;79.94
70011;BME280;59543;37.950;-122.338;2023-08-01T02:44:42;101244.38;;;16.06;81.83
70011;BME280;59543;37.950;-122.338;2023-08-01T02:47:08;101247.13;;;15.98;83.09
70011;BME280;59543;37.950;-122.338;2023-08-01T02:49:34;101237.28;;;15.81;84.01
70011;BME280;59543;37.950;-122.338;2023-08-01T02:52:01;101245.25;;;15.82;84.30
70011;BME280;59543;37.950;-122.338;2023-08-01T02:54:27;101232.53;;;15.66;85.55
70011;BME280;59543;37.950;-122.338;2023-08-01T02:56:54;101235.91;;;15.52;86.23
70011;BME280;59543;37.950;-122.338;2023-08-01T02:59:20;101235.22;;;15.33;87.34
70011;BME280;59543;37.950;-122.338;2023-08-01T03:01:46;101231.84;;;15.31;87.49
70011;BME280;59543;37.950;-122.338;2023-08-01T03:04:12;101236.59;;;15.38;87.52
70011;BME280;59543;37.950;-122.338;2023-08-01T03:06:39;101238.44;;;15.21;88.14
70011;BME280;59543;37.950;-122.338;2023-08-01T03:09:05;101234.91;;;15.28;87.88
70011;BME280;59543;37.950;-122.338;2023-08-01T03:11:37;101242.16;;;15.20;88.63
70011;BME280;59543;37.950;-122.338;2023-08-01T03:14:03;101236.22;;;15.16;88.46
70011;BME280;59543;37.950;-122.338;2023-08-01T03:16:30;101240.91;;;14.98;89.88
70011;BME280;59543;37.950;-122.338;2023-08-01T03:18:57;101234.16;;;14.94;90.15
70011;BME280;59543;37.950;-122.338;2023-08-01T03:21:26;101254.78;;;14.86;90.82
70011;BME280;59543;37.950;-122.338;2023-08-01T03:23:52;101245.09;;;14.76;91.87
70011;BME280;59543;37.950;-122.338;2023-08-01T03:26:18;101260.09;;;14.62;92.72
70011;BME280;59543;37.950;-122.338;2023-08-01T03:28:45;101255.34;;;14.56;93.61
70011;BME280;59543;37.950;-122.338;2023-08-01T03:31:11;101257.53;;;14.52;93.70
70011;BME280;59543;37.950;-122.338;2023-08-01T03:33:37;101265.59;;;14.44;94.52
70011;BME280;59543;37.950;-122.338;2023-08-01T03:36:04;101262.22;;;14.50;94.15
70011;BME280;59543;37.950;-122.338;2023-08-01T03:38:30;101260.91;;;14.54;93.66
70011;BME280;59543;37.950;-122.338;2023-08-01T03:40:57;101263.56;;;14.46;94.16
70011;BME280;59543;37.950;-122.338;2023-08-01T03:43:23;101254.44;;;14.47;94.10
70011;BME280;59543;37.950;-122.338;2023-08-01T03:45:51;101259.63;;;14.40;94.70
70011;BME280;59543;37.950;-122.338;2023-08-01T03:48:17;101250.84;;;14.38;95.40
70011;BME280;59543;37.950;-122.338;2023-08-01T03:50:43;101254.34;;;14.31;95.56
70011;BME280;59543;37.950;-122.338;2023-08-01T03:53:10;101264.13;;;14.24;96.43
70011;BME280;59543;37.950;-122.338;2023-08-01T03:55:36;101256.00;;;14.24;96.42
70011;BME280;59543;37.950;-122.338;2023-08-01T03:58:02;101253.63;;;14.21;96.74
70011;BME280;59543;37.950;-122.338;2023-08-01T04:00:28;101255.41;;;14.12;97.91
70011;BME280;59543;37.950;-122.338;2023-08-01T04:03:01;101259.28;;;14.09;97.86
70011;BME280;59543;37.950;-122.338;2023-08-01T04:05:28;101257.81;;;14.15;98.13
70011;BME280;59543;37.950;-122.338;2023-08-01T04:07:54;101260.63;;;14.05;98.81
70011;BME280;59543;37.950;-122.338;2023-08-01T04:10:21;101275.31;;;14.03;98.78
70011;BME280;59543;37.950;-122.338;2023-08-01T04:12:48;101262.09;;;14.00;99.33
70011;BME280;59543;37.950;-122.338;2023-08-01T04:15:14;101263.09;;;13.99;99.33
70011;BME280;59543;37.950;-122.338;2023-08-01T04:17:41;101255.63;;;13.92;99.62
70011;BME280;59543;37.950;-122.338;2023-08-01T04:20:07;101256.31;;;13.94;99.80
70011;BME280;59543;37.950;-122.338;2023-08-01T04:22:34;101259.72;;;13.97;99.63
70011;BME280;59543;37.950;-122.338;2023-08-01T04:25:01;101258.28;;;13.84;99.97
70011;BME280;59543;37.950;-122.338;2023-08-01T04:27:28;101269.25;;;13.83;100.00
70011;BME280;59543;37.950;-122.338;2023-08-01T04:29:55;101268.41;;;13.82;100.00
70011;BME280;59543;37.950;-122.338;2023-08-01T04:32:22;101264.31;;;13.78;100.00
70011;BME280;59543;37.950;-122.338;2023-08-01T04:34:48;101263.63;;;13.76;100.00
70011;BME280;59543;37.950;-122.338;2023-08-01T04:37:14;101272.75;;;13.75;100.00
70011;BME280;59543;37.950;-122.338;2023-08-01T04:39:40;101269.13;;;13.66;100.00
70011;BME280;59543;37.950;-122.338;2023-08-01T04:42:07;101268.63;;;13.71;100.00
70011;BME280;59543;37.950;-122.338;2023-08-01T04:44:33;101270.03;;;13.75;100.00
70011;BME280;59543;37.950;-122.338;2023-08-01T04:46:59;101271.84;;;13.66;100.00
70011;BME280;59543;37.950;-122.338;2023-08-01T04:49:25;101278.81;;;13.77;100.00
70011;BME280;59543;37.950;-122.338;2023-08-01T04:51:52;101266.44;;;13.66;100.00
70011;BME280;59543;37.950;-122.338;2023-08-01T04:54:18;101277.16;;;13.58;100.00
70011;BME280;59543;37.950;-122.338;2023-08-01T04:56:44;101275.28;;;13.59;100.00
70011;BME280;59543;37.950;-122.338;2023-08-01T04:59:10;101269.44;;;13.63;100.00
70011;BME280;59543;37.950;-122.338;2023-08-01T05:01:37;101277.47;;;13.55;100.00
70011;BME280;59543;37.950;-122.338;2023-08-01T05:04:03;101274.13;;;13.61;100.00
70011;BME280;59543;37.950;-122.338;2023-08-01T05:06:29;101278.63;;;13.53;100.00
70011;BME280;59543;37.950;-122.338;2023-08-01T05:08:56;101278.22;;;13.47;100.00
70011;BME280;59543;37.950;-122.338;2023-08-01T05:11:22;101290.06;;;13.46;100.00
70011;BME280;59543;37.950;-122.338;2023-08-01T05:13:48;101286.03;;;13.50;100.00
70011;BME280;59543;37.950;-122.338;2023-08-01T05:16:15;101285.19;;;13.50;100.00
70011;BME280;59543;37.950;-122.338;2023-08-01T05:18:41;101288.72;;;13.50;100.00
70011;BME280;59543;37.950;-122.338;2023-08-01T05:21:07;101282.97;;;13.45;100.00
70011;BME280;59543;37.950;-122.338;2023-08-01T05:23:33;101289.75;;;13.49;100.00
70011;BME280;59543;37.950;-122.338;2023-08-01T05:26:00;101280.72;;;13.41;100.00
70011;BME280;59543;37.950;-122.338;2023-08-01T05:28:26;101291.59;;;13.31;100.00
70011;BME280;59543;37.950;-122.338;2023-08-01T05:30:52;101290.06;;;13.46;100.00
70011;BME280;59543;37.950;-122.338;2023-08-01T05:33:19;101286.03;;;13.50;100.00
70011;BME280;59543;37.950;-122.338;2023-08-01T05:35:45;101293.47;;;13.48;100.00
70011;BME280;59543;37.950;-122.338;2023-08-01T05:38:11;101287.75;;;13.52;100.00
70011;BME280;59543;37.950;-122.338;2023-08-01T05:40:37;101279.88;;;13.58;100.00
70011;BME280;59543;37.950;-122.338;2023-08-01T05:43:05;101283.41;;;13.59;100.00
70011;BME280;59543;37.950;-122.338;2023-08-01T05:45:37;101291.75;;;13.47;100.00
70011;BME280;59543;37.950;-122.338;2023-08-01T05:48:03;101286.19;;;13.49;100.00
70011;BME280;59543;37.950;-122.338;2023-08-01T05:50:29;101287.03;;;13.49;100.00
70011;BME280;59543;37.950;-122.338;2023-08-01T05:52:56;101285.66;;;13.45;100.00
70011;BME280;59543;37.950;-122.338;2023-08-01T05:55:22;101284.97;;;13.43;100.00
70011;BME280;59543;37.950;-122.338;2023-08-01T05:57:48;101290.53;;;13.42;100.00
70011;BME280;59543;37.950;-122.338;2023-08-01T06:00:19;101299.50;;;13.42;100.00
70011;BME280;59543;37.950;-122.338;2023-08-01T06:02:48;101294.00;;;13.34;100.00
70011;BME280;59543;37.950;-122.338;2023-08-01T06:05:15;101299.19;;;13.45;100.00
70011;BME280;59543;37.950;-122.338;2023-08-01T06:07:41;101290.38;;;13.43;100.00
70011;BME280;59543;37.950;-122.338;2023-08-01T06:10:07;101306.56;;;13.43;100.00
70011;BME280;59543;37.950;-122.338;2023-08-01T06:12:34;101311.69;;;13.46;100.00
70011;BME280;59543;37.950;-122.338;2023-08-01T06:15:01;101300.25;;;13.53;100.00
70011;BME280;59543;37.950;-122.338;2023-08-01T06:17:27;101303.97;;;13.52;100.00
70011;BME280;59543;37.950;-122.338;2023-08-01T06:19:53;101296.31;;;13.47;100.00
70011;BME280;59543;37.950;-122.338;2023-08-01T06:22:20;101311.44;;;13.58;100.00
70011;BME280;59543;37.950;-122.338;2023-08-01T06:24:46;101305.72;;;13.61;100.00
70011;BME280;59543;37.950;-122.338;2023-08-01T06:27:13;101302.94;;;13.53;100.00
70011;BME280;59543;37.950;-122.338;2023-08-01T06:29:40;101307.13;;;13.65;100.00
70011;BME280;59543;37.950;-122.338;2023-08-01T06:32:07;101308.97;;;13.64;100.00
70011;BME280;59543;37.950;-122.338;2023-08-01T06:34:33;101305.13;;;13.67;100.00
70011;BME280;59543;37.950;-122.338;2023-08-01T06:36:59;101305.81;;;13.69;100.00
70011;BME280;59543;37.950;-122.338;2023-08-01T06:39:26;101310.59;;;13.75;100.00
70011;BME280;59543;37.950;-122.338;2023-08-01T06:41:52;101298.16;;;13.82;100.00
70011;BME280;59543;37.950;-122.338;2023-08-01T06:44:18;101301.69;;;13.83;100.00
70011;BME280;59543;37.950;-122.338;2023-08-01T06:46:44;101299.41;;;13.70;100.00
70011;BME280;59543;37.950;-122.338;2023-08-01T06:49:11;101306.50;;;13.71;100.00
70011;BME280;59543;37.950;-122.338;2023-08-01T06:51:37;101298.59;;;13.78;100.00
70011;BME280;59543;37.950;-122.338;2023-08-01T06:54:03;101296.78;;;13.78;100.00
70011;BME280;59543;37.950;-122.338;2023-08-01T06:56:30;101304.88;;;13.78;100.00
70011;BME280;59543;37.950;-122.338;2023-08-01T06:58:56;101303.13;;;13.69;100.00
70011;BME280;59543;37.950;-122.338;2023-08-01T07:01:22;101307.19;;;13.73;100.00
70011;BME280;59543;37.950;-122.338;2023-08-01T07:03:48;101292.22;;;13.79;100.00
70011;BME280;59543;37.950;-122.338;2023-08-01T07:06:16;101295.06;;;13.77;100.00
70011;BME280;59543;37.950;-122.338;2023-08-01T07:08:43;101292.22;;;13.79;100.00
70011;BME280;59543;37.950;-122.338;2023-08-01T07:11:09;101296.06;;;13.76;100.00
70011;BME280;59543;37.950;-122.338;2023-08-01T07:13:35;101284.84;;;13.71;100.00
70011;BME280;59543;37.950;-122.338;2023-08-01T07:16:01;101290.75;;;13.66;100.00
70011;BME280;59543;37.950;-122.338;2023-08-01T07:18:28;101288.09;;;13.75;100.00
70011;BME280;59543;37.950;-122.338;2023-08-01T07:21:01;101284.72;;;13.72;100.00
70011;BME280;59543;37.950;-122.338;2023-08-01T07:23:28;101285.78;;;13.80;100.00
70011;BME280;59543;37.950;-122.338;2023-08-01T07:25:54;101283.88;;;13.72;100.00
70011;BME280;59543;37.950;-122.338;2023-08-01T07:28:21;101283.25;;;13.78;100.00
70011;BME280;59543;37.950;-122.338;2023-08-01T07:30:47;101285.72;;;13.71;100.00
70011;BME280;59543;37.950;-122.338;2023-08-01T07:33:13;101286.84;;;13.87;100.00
70011;BME280;59543;37.950;-122.338;2023-08-01T07:35:39;101285.88;;;13.70;100.00
70011;BME280;59543;37.950;-122.338;2023-08-01T07:38:06;101295.84;;;13.69;100.00
70011;BME280;59543;37.950;-122.338;2023-08-01T07:40:32;101296.06;;;13.76;100.00
70011;BME280;59543;37.950;-122.338;2023-08-01T07:42:58;101293.50;;;13.75;100.00
70011;BME280;59543;37.950;-122.338;2023-08-01T07:45:25;101294.91;;;13.79;100.00
70011;BME280;59543;37.950;-122.338;2023-08-01T07:47:51;101294.00;;;13.70;100.00
70011;BME280;59543;37.950;-122.338;2023-08-01T07:50:18;101301.56;;;13.84;100.00
70011;BME280;59543;37.950;-122.338;2023-08-01T07:52:44;101292.94;;;13.89;100.00
70011;BME280;59543;37.950;-122.338;2023-08-01T07:55:10;101301.78;;;13.73;100.00
70011;BME280;59543;37.950;-122.338;2023-08-01T07:57:36;101292.22;;;13.79;100.00
70011;BME280;59543;37.950;-122.338;2023-08-01T08:00:03;101301.56;;;13.84;100.00
70011;BME280;59543;37.950;-122.338;2023-08-01T08:02:29;101304.94;;;13.86;100.00
70011;BME280;59543;37.950;-122.338;2023-08-01T08:04:55;101312.69;;;13.81;100.00
70011;BME280;59543;37.950;-122.338;2023-08-01T08:07:22;101290.13;;;13.72;100.00
70011;BME280;59543;37.950;-122.338;2023-08-01T08:09:48;101291.72;;;13.83;100.00
70011;BME280;59543;37.950;-122.338;2023-08-01T08:12:14;101289.97;;;13.74;100.00
70011;BME280;59543;37.950;-122.338;2023-08-01T08:14:40;101301.31;;;13.78;100.00
70011;BME280;59543;37.950;-122.338;2023-08-01T08:17:07;101300.22;;;13.88;100.00
70011;BME280;59543;37.950;-122.338;2023-08-01T08:19:33;101288.38;;;13.89;99.82
70011;BME280;59543;37.950;-122.338;2023-08-01T08:21:59;101285.63;;;13.81;99.94
70011;BME280;59543;37.950;-122.338;2023-08-01T08:24:25;101289.72;;;13.85;99.22
70011;BME280;59543;37.950;-122.338;2023-08-01T08:26:52;101291.38;;;13.78;99.98
70011;BME280;59543;37.950;-122.338;2023-08-01T08:29:18;101293.75;;;13.81;100.00
70011;BME280;59543;37.950;-122.338;2023-08-01T08:31:44;101298.28;;;13.81;99.97
70011;BME280;59543;37.950;-122.338;2023-08-01T08:34:10;101296.38;;;13.73;100.00
70011;BME280;59543;37.950;-122.338;2023-08-01T08:36:37;101302.94;;;13.70;100.00
70011;BME280;59543;37.950;-122.338;2023-08-01T08:39:03;101304.19;;;13.76;100.00
70011;BME280;59543;37.950;-122.338;2023-08-01T08:41:45;101302.41;;;13.67;100.00
70011;BME280;59543;37.950;-122.338;2023-08-01T08:44:15;101308.56;;;13.77;100.00
70011;BME280;59543;37.950;-122.338;2023-08-01T08:46:44;101304.81;;;13.70;100.00
70011;BME280;59543;37.950;-122.338;2023-08-01T08:49:11;101302.56;;;13.65;100.00
70011;BME280;59543;37.950;-122.338;2023-08-01T08:51:38;101302.50;;;13.57;100.00
70011;BME280;59543;37.950;-122.338;2023-08-01T08:54:05;101310.66;;;13.65;100.00
70011;BME280;59543;37.950;-122.338;2023-08-01T08:56:33;101311.22;;;13.69;100.00
70011;BME280;59543;37.950;-122.338;2023-08-01T08:59:00;101311.06;;;13.70;100.00
70011;BME280;59543;37.950;-122.338;2023-08-01T09:01:27;101316.06;;;13.65;100.00
70011;BME280;59543;37.950;-122.338;2023-08-01T09:03:54;101310.22;;;13.70;100.00
70011;BME280;59543;37.950;-122.338;2023-08-01T09:06:27;101305.81;;;13.69;100.00
70011;BME280;59543;37.950;-122.338;2023-08-01T09:09:09;101299.53;;;13.68;100.00
70011;BME280;59543;37.950;-122.338;2023-08-01T09:11:52;101299.50;;;13.60;100.00
70011;BME280;59543;37.950;-122.338;2023-08-01T09:14:21;101299.78;;;13.57;100.00
70011;BME280;59543;37.950;-122.338;2023-08-01T09:16:48;101294.75;;;13.62;100.00
70011;BME280;59543;37.950;-122.338;2023-08-01T09:19:18;101305.03;;;13.59;100.00
70011;BME280;59543;37.950;-122.338;2023-08-01T09:21:45;101302.72;;;13.64;100.00
70011;BME280;59543;37.950;-122.338;2023-08-01T09:24:13;101303.16;;;13.59;100.00
70011;BME280;59543;37.950;-122.338;2023-08-01T09:26:42;101302.72;;;13.64;100.00
70011;BME280;59543;37.950;-122.338;2023-08-01T09:29:08;101305.50;;;13.72;100.00
70011;BME280;59543;37.950;-122.338;2023-08-01T09:31:39;101299.31;;;13.62;100.00
70011;BME280;59543;37.950;-122.338;2023-08-01T09:34:18;101294.44;;;13.47;100.00
70011;BME280;59543;37.950;-122.338;2023-08-01T09:36:44;101292.84;;;13.55;100.00
70011;BME280;59543;37.950;-122.338;2023-08-01T09:39:18;101291.28;;;13.52;100.00
70011;BME280;59543;37.950;-122.338;2023-08-01T09:41:45;101289.13;;;13.56;100.00
70011;BME280;59543;37.950;-122.338;2023-08-01T09:44:15;101299.31;;;13.62;100.00
70011;BME280;59543;37.950;-122.338;2023-08-01T09:46:41;101306.91;;;13.58;100.00
70011;BME280;59543;37.950;-122.338;2023-08-01T09:49:10;101301.31;;;13.60;100.00
70011;BME280;59543;37.950;-122.338;2023-08-01T09:51:50;101303.03;;;13.61;100.00
70011;BME280;59543;37.950;-122.338;2023-08-01T09:54:17;101305.19;;;13.57;100.00
70011;BME280;59543;37.950;-122.338;2023-08-01T09:56:49;101297.63;;;13.61;100.00
70011;BME280;59543;37.950;-122.338;2023-08-01T09:59:25;101298.91;;;13.57;100.00
70011;BME280;59543;37.950;-122.338;2023-08-01T10:01:53;101294.22;;;13.59;100.00
70011;BME280;59543;37.950;-122.338;2023-08-01T10:04:40;101298.91;;;13.57;100.00
70011;BME280;59543;37.950;-122.338;2023-08-01T10:07:09;101292.84;;;13.55;100.00
70011;BME280;59543;37.950;-122.338;2023-08-01T10:09:41;101291.28;;;13.52;100.00
70011;BME280;59543;37.950;-122.338;2023-08-01T10:12:08;101291.38;;;13.60;100.00
70011;BME280;59543;37.950;-122.338;2023-08-01T10:14:36;101286.09;;;13.59;100.00
70011;BME280;59543;37.950;-122.338;2023-08-01T10:17:03;101284.09;;;13.61;100.00
70011;BME280;59543;37.950;-122.338;2023-08-01T10:19:32;101279.94;;;13.66;100.00
70011;BME280;59543;37.950;-122.338;2023-08-01T10:21:59;101278.00;;;13.59;100.00
70011;BME280;59543;37.950;-122.338;2023-08-01T10:24:28;101277.25;;;13.48;100.00
70011;BME280;59543;37.950;-122.338;2023-08-01T10:26:55;101274.22;;;13.52;100.00
70011;BME280;59543;37.950;-122.338;2023-08-01T10:29:21;101272.16;;;13.45;100.00
70011;BME280;59543;37.950;-122.338;2023-08-01T10:31:52;101274.00;;;13.45;100.00
70011;BME280;59543;37.950;-122.338;2023-08-01T10:34:19;101275.47;;;13.57;100.00
70011;BME280;59543;37.950;-122.338;2023-08-01T10:36:58;101279.31;;;13.55;100.00
70011;BME280;59543;37.950;-122.338;2023-08-01T10:39:25;101278.41;;;13.46;100.00
70011;BME280;59543;37.950;-122.338;2023-08-01T10:42:02;101281.63;;;13.49;100.00
70011;BME280;59543;37.950;-122.338;2023-08-01T10:44:29;101279.25;;;13.46;100.00
70011;BME280;59543;37.950;-122.338;2023-08-01T10:47:02;101278.41;;;13.46;100.00
70011;BME280;59543;37.950;-122.338;2023-08-01T10:52:02;101283.72;;;13.56;100.00
70011;BME280;59543;37.950;-122.338;2023-08-01T10:54:29;101284.56;;;13.56;100.00
70011;BME280;59543;37.950;-122.338;2023-08-01T10:56:56;101277.78;;;13.52;100.00
70011;BME280;59543;37.950;-122.338;2023-08-01T10:59:27;101289.34;;;13.62;100.00
70011;BME280;59543;37.950;-122.338;2023-08-01T11:01:59;101281.88;;;13.56;100.00
70011;BME280;59543;37.950;-122.338;2023-08-01T11:04:28;101281.00;;;13.56;100.00
70011;BME280;59543;37.950;-122.338;2023-08-01T11:06:55;101266.34;;;13.58;100.00
70011;BME280;59543;37.950;-122.338;2023-08-01T11:09:23;101268.97;;;13.50;100.00
70011;BME280;59543;37.950;-122.338;2023-08-01T11:11:52;101263.56;;;13.50;100.00
70011;BME280;59543;37.950;-122.338;2023-08-01T11:14:20;101270.19;;;13.56;100.00
70011;BME280;59543;37.950;-122.338;2023-08-01T11:16:49;101263.78;;;13.57;100.00
70011;BME280;59543;37.950;-122.338;2023-08-01T11:19:33;101268.81;;;13.52;100.00
70011;BME280;59543;37.950;-122.338;2023-08-01T11:22:09;101273.84;;;13.46;100.00
70011;BME280;59543;37.950;-122.338;2023-08-01T11:24:36;101274.59;;;13.57;100.00
70011;BME280;59543;37.950;-122.338;2023-08-01T11:27:02;101272.38;;;13.52;100.00
70011;BME280;59543;37.950;-122.338;2023-08-01T11:29:28;101281.50;;;13.51;100.00
70011;BME280;59543;37.950;-122.338;2023-08-01T11:31:59;101284.03;;;13.53;100.00
70011;BME280;59543;37.950;-122.338;2023-08-01T11:34:26;101292.84;;;13.55;100.00
70011;BME280;59543;37.950;-122.338;2023-08-01T11:36:53;101292.84;;;13.55;100.00
70011;BME280;59543;37.950;-122.338;2023-08-01T11:39:19;101296.22;;;13.57;100.00
70011;BME280;59543;37.950;-122.338;2023-08-01T11:41:48;101303.97;;;13.52;100.00
70011;BME280;59543;37.950;-122.338;2023-08-01T11:44:14;101305.13;;;13.49;100.00
70011;BME280;59543;37.950;-122.338;2023-08-01T11:46:40;101300.56;;;13.49;100.00
70011;BME280;59543;37.950;-122.338;2023-08-01T11:49:07;101311.38;;;13.49;100.00
70011;BME280;59543;37.950;-122.338;2023-08-01T11:51:44;101309.69;;;13.48;100.00
70011;BME280;59543;37.950;-122.338;2023-08-01T11:54:12;101309.28;;;13.43;100.00
70011;BME280;59543;37.950;-122.338;2023-08-01T11:56:39;101323.19;;;13.48;100.00
70011;BME280;59543;37.950;-122.338;2023-08-01T11:59:15;101314.06;;;13.49;100.00
70011;BME280;59543;37.950;-122.338;2023-08-01T12:01:46;101315.75;;;13.50;100.00
70011;BME280;59543;37.950;-122.338;2023-08-01T12:04:25;101316.53;;;13.43;100.00
70011;BME280;59543;37.950;-122.338;2023-08-01T12:06:51;101319.16;;;13.53;100.00
70011;BME280;59543;37.950;-122.338;2023-08-01T12:09:19;101309.81;;;13.47;100.00
70011;BME280;59543;37.950;-122.338;2023-08-01T12:11:58;101312.53;;;13.47;100.00
70011;BME280;59543;37.950;-122.338;2023-08-01T12:14:26;101308.22;;;13.54;100.00
70011;BME280;59543;37.950;-122.338;2023-08-01T12:16:53;101313.31;;;13.57;100.00
70011;BME280;59543;37.950;-122.338;2023-08-01T12:19:20;101313.06;;;13.50;100.00
70011;BME280;59543;37.950;-122.338;2023-08-01T12:21:47;101314.16;;;13.58;100.00